sensor_id;sensor_type;location;lat;lon;timestamp;P1;durP1;ratioP1;P2;durP2;ratioP2
73454;SDS011;61690;51.824;6.306;2022-08-19T00:00:16;9.67;;;7.10;;
73454;SDS011;61690;51.824;6.306;2022-08-19T00:02:43;9.70;;;7.22;;
73454;SDS011;61690;51.824;6.306;2022-08-19T00:05:09;11.97;;;7.83;;
73454;SDS011;61690;51.824;6.306;2022-08-19T00:07:35;10.13;;;7.10;;
73454;SDS011;61690;51.824;6.306;2022-08-19T00:10:03;9.27;;;6.93;;
73454;SDS011;61690;51.824;6.306;2022-08-19T00:12:30;10.80;;;6.93;;
73454;SDS011;61690;51.824;6.306;2022-08-19T00:14:56;11.87;;;7.87;;
73454;SDS011;61690;51.824;6.306;2022-08-19T00:17:21;10.70;;;8.40;;
73454;SDS011;61690;51.824;6.306;2022-08-19T00:19:46;11.40;;;7.70;;
73454;SDS011;61690;51.824;6.306;2022-08-19T00:22:12;11.20;;;8.52;;
73454;SDS011;61690;51.824;6.306;2022-08-19T00:24:37;13.20;;;8.97;;
73454;SDS011;61690;51.824;6.306;2022-08-19T00:27:03;10.83;;;8.20;;
73454;SDS011;61690;51.824;6.306;2022-08-19T00:29:29;12.68;;;8.27;;
73454;SDS011;61690;51.824;6.306;2022-08-19T00:31:56;12.02;;;7.75;;
73454;SDS011;61690;51.824;6.306;2022-08-19T00:34:23;10.85;;;7.45;;
73454;SDS011;61690;51.824;6.306;2022-08-19T00:36:51;12.23;;;7.32;;
73454;SDS011;61690;51.824;6.306;2022-08-19T00:39:17;12.37;;;8.53;;
73454;SDS011;61690;51.824;6.306;2022-08-19T00:41:43;11.40;;;8.03;;
73454;SDS011;61690;51.824;6.306;2022-08-19T00:44:15;11.25;;;7.55;;
73454;SDS011;61690;51.824;6.306;2022-08-19T00:46:45;11.25;;;7.82;;
73454;SDS011;61690;51.824;6.306;2022-08-19T00:51:47;9.77;;;6.63;;
73454;SDS011;61690;51.824;6.306;2022-08-19T00:54:15;10.02;;;6.10;;
73454;SDS011;61690;51.824;6.306;2022-08-19T00:56:41;10.05;;;6.65;;
73454;SDS011;61690;51.824;6.306;2022-08-19T00:59:08;9.88;;;7.20;;
73454;SDS011;61690;51.824;6.306;2022-08-19T01:01:35;11.38;;;7.13;;
73454;SDS011;61690;51.824;6.306;2022-08-19T01:04:02;11.10;;;7.10;;
73454;SDS011;61690;51.824;6.306;2022-08-19T01:06:27;9.95;;;6.90;;
73454;SDS011;61690;51.824;6.306;2022-08-19T01:08:55;10.45;;;7.28;;
73454;SDS011;61690;51.824;6.306;2022-08-19T01:11:21;9.70;;;6.90;;
73454;SDS011;61690;51.824;6.306;2022-08-19T01:13:46;10.27;;;7.20;;
73454;SDS011;61690;51.824;6.306;2022-08-19T01:16:12;11.68;;;8.52;;
73454;SDS011;61690;51.824;6.306;2022-08-19T01:18:39;12.07;;;7.75;;
73454;SDS011;61690;51.824;6.306;2022-08-19T01:23:41;9.90;;;7.57;;
73454;SDS011;61690;51.824;6.306;2022-08-19T01:26:12;10.00;;;6.93;;
73454;SDS011;61690;51.824;6.306;2022-08-19T01:28:43;10.60;;;7.88;;
73454;SDS011;61690;51.824;6.306;2022-08-19T01:31:13;11.80;;;7.97;;
73454;SDS011;61690;51.824;6.306;2022-08-19T01:33:40;11.43;;;7.85;;
73454;SDS011;61690;51.824;6.306;2022-08-19T01:36:10;12.73;;;8.87;;
73454;SDS011;61690;51.824;6.306;2022-08-19T01:38:38;12.43;;;8.00;;
73454;SDS011;61690;51.824;6.306;2022-08-19T01:41:06;12.30;;;8.43;;
73454;SDS011;61690;51.824;6.306;2022-08-19T01:43:32;11.82;;;7.75;;
73454;SDS011;61690;51.824;6.306;2022-08-19T01:45:58;10.37;;;7.47;;
73454;SDS011;61690;51.824;6.306;2022-08-19T01:48:24;9.48;;;6.60;;
73454;SDS011;61690;51.824;6.306;2022-08-19T01:50:49;11.43;;;8.10;;
73454;SDS011;61690;51.824;6.306;2022-08-19T01:53:14;10.90;;;7.87;;
73454;SDS011;61690;51.824;6.306;2022-08-19T01:55:41;11.53;;;7.97;;
73454;SDS011;61690;51.824;6.306;2022-08-19T01:58:08;10.55;;;6.40;;
73454;SDS011;61690;51.824;6.306;2022-08-19T02:00:37;9.50;;;6.68;;
73454;SDS011;61690;51.824;6.306;2022-08-19T02:03:02;9.87;;;6.70;;
73454;SDS011;61690;51.824;6.306;2022-08-19T02:05:28;10.80;;;7.40;;
73454;SDS011;61690;51.824;6.306;2022-08-19T02:07:54;11.10;;;7.68;;
73454;SDS011;61690;51.824;6.306;2022-08-19T02:10:21;9.45;;;5.68;;
73454;SDS011;61690;51.824;6.306;2022-08-19T02:12:47;8.63;;;5.65;;
73454;SDS011;61690;51.824;6.306;2022-08-19T02:15:14;9.18;;;5.50;;
73454;SDS011;61690;51.824;6.306;2022-08-19T02:17:40;8.13;;;5.33;;
73454;SDS011;61690;51.824;6.306;2022-08-19T02:20:06;8.45;;;5.60;;
73454;SDS011;61690;51.824;6.306;2022-08-19T02:22:32;8.75;;;5.63;;
73454;SDS011;61690;51.824;6.306;2022-08-19T02:24:58;7.67;;;5.13;;
73454;SDS011;61690;51.824;6.306;2022-08-19T02:27:24;9.43;;;6.25;;
73454;SDS011;61690;51.824;6.306;2022-08-19T02:29:50;9.87;;;6.30;;
73454;SDS011;61690;51.824;6.306;2022-08-19T02:32:16;9.98;;;5.75;;
73454;SDS011;61690;51.824;6.306;2022-08-19T02:34:43;8.65;;;5.72;;
73454;SDS011;61690;51.824;6.306;2022-08-19T02:37:09;8.50;;;6.40;;
73454;SDS011;61690;51.824;6.306;2022-08-19T02:39:54;9.32;;;6.55;;
73454;SDS011;61690;51.824;6.306;2022-08-19T02:42:19;8.03;;;5.53;;
73454;SDS011;61690;51.824;6.306;2022-08-19T02:44:45;11.23;;;6.43;;
73454;SDS011;61690;51.824;6.306;2022-08-19T02:47:10;9.53;;;6.40;;
73454;SDS011;61690;51.824;6.306;2022-08-19T02:49:35;8.73;;;5.60;;
73454;SDS011;61690;51.824;6.306;2022-08-19T02:52:01;8.00;;;5.33;;
73454;SDS011;61690;51.824;6.306;2022-08-19T02:54:28;9.82;;;6.00;;
73454;SDS011;61690;51.824;6.306;2022-08-19T02:56:53;8.77;;;6.40;;
73454;SDS011;61690;51.824;6.306;2022-08-19T02:59:19;8.63;;;5.50;;
73454;SDS011;61690;51.824;6.306;2022-08-19T03:01:44;9.70;;;6.03;;
73454;SDS011;61690;51.824;6.306;2022-08-19T03:04:11;10.30;;;6.10;;
73454;SDS011;61690;51.824;6.306;2022-08-19T03:06:40;10.73;;;6.82;;
73454;SDS011;61690;51.824;6.306;2022-08-19T03:09:06;9.07;;;6.10;;
73454;SDS011;61690;51.824;6.306;2022-08-19T03:11:32;11.85;;;7.50;;
73454;SDS011;61690;51.824;6.306;2022-08-19T03:13:59;10.07;;;7.63;;
73454;SDS011;61690;51.824;6.306;2022-08-19T03:16:26;11.80;;;7.68;;
73454;SDS011;61690;51.824;6.306;2022-08-19T03:18:53;10.45;;;6.35;;
73454;SDS011;61690;51.824;6.306;2022-08-19T03:21:24;9.63;;;5.87;;
73454;SDS011;61690;51.824;6.306;2022-08-19T03:23:54;9.00;;;5.95;;
73454;SDS011;61690;51.824;6.306;2022-08-19T03:26:20;10.07;;;5.55;;
73454;SDS011;61690;51.824;6.306;2022-08-19T03:28:46;9.10;;;5.20;;
73454;SDS011;61690;51.824;6.306;2022-08-19T03:31:14;9.10;;;5.60;;
73454;SDS011;61690;51.824;6.306;2022-08-19T03:33:41;9.65;;;5.40;;
73454;SDS011;61690;51.824;6.306;2022-08-19T03:36:15;8.65;;;5.20;;
73454;SDS011;61690;51.824;6.306;2022-08-19T03:38:44;8.88;;;5.22;;
73454;SDS011;61690;51.824;6.306;2022-08-19T03:41:13;8.97;;;5.40;;
73454;SDS011;61690;51.824;6.306;2022-08-19T03:43:41;8.45;;;5.32;;
73454;SDS011;61690;51.824;6.306;2022-08-19T03:46:09;9.35;;;5.50;;
73454;SDS011;61690;51.824;6.306;2022-08-19T03:48:37;10.10;;;5.63;;
73454;SDS011;61690;51.824;6.306;2022-08-19T03:51:03;10.43;;;6.70;;
73454;SDS011;61690;51.824;6.306;2022-08-19T03:53:30;9.03;;;6.10;;
73454;SDS011;61690;51.824;6.306;2022-08-19T03:55:57;8.70;;;6.00;;
73454;SDS011;61690;51.824;6.306;2022-08-19T03:58:25;9.82;;;6.15;;
73454;SDS011;61690;51.824;6.306;2022-08-19T04:00:54;10.40;;;6.32;;
73454;SDS011;61690;51.824;6.306;2022-08-19T04:03:20;9.77;;;5.90;;
73454;SDS011;61690;51.824;6.306;2022-08-19T04:05:46;10.00;;;5.93;;
73454;SDS011;61690;51.824;6.306;2022-08-19T04:08:11;10.03;;;5.60;;
73454;SDS011;61690;51.824;6.306;2022-08-19T04:10:37;8.45;;;5.68;;
73454;SDS011;61690;51.824;6.306;2022-08-19T04:13:04;8.73;;;5.67;;
73454;SDS011;61690;51.824;6.306;2022-08-19T04:15:31;8.82;;;5.35;;
73454;SDS011;61690;51.824;6.306;2022-08-19T04:18:03;8.50;;;5.85;;
73454;SDS011;61690;51.824;6.306;2022-08-19T04:20:29;11.48;;;7.13;;
73454;SDS011;61690;51.824;6.306;2022-08-19T04:22:56;11.90;;;7.60;;
73454;SDS011;61690;51.824;6.306;2022-08-19T04:25:22;11.75;;;8.25;;
73454;SDS011;61690;51.824;6.306;2022-08-19T04:27:47;15.27;;;9.27;;
73454;SDS011;61690;51.824;6.306;2022-08-19T04:30:13;12.00;;;8.75;;
73454;SDS011;61690;51.824;6.306;2022-08-19T04:32:39;12.70;;;9.30;;
73454;SDS011;61690;51.824;6.306;2022-08-19T04:35:04;12.63;;;9.03;;
73454;SDS011;61690;51.824;6.306;2022-08-19T04:37:30;14.17;;;8.80;;
73454;SDS011;61690;51.824;6.306;2022-08-19T04:39:58;12.73;;;9.07;;
73454;SDS011;61690;51.824;6.306;2022-08-19T04:42:42;14.02;;;10.10;;
73454;SDS011;61690;51.824;6.306;2022-08-19T04:45:09;12.20;;;9.27;;
73454;SDS011;61690;51.824;6.306;2022-08-19T04:47:37;14.43;;;10.13;;
73454;SDS011;61690;51.824;6.306;2022-08-19T04:50:04;15.18;;;10.35;;
73454;SDS011;61690;51.824;6.306;2022-08-19T04:52:30;16.20;;;10.33;;
73454;SDS011;61690;51.824;6.306;2022-08-19T04:54:56;13.25;;;9.80;;
73454;SDS011;61690;51.824;6.306;2022-08-19T04:57:22;14.32;;;10.50;;
73454;SDS011;61690;51.824;6.306;2022-08-19T04:59:47;14.00;;;10.17;;
73454;SDS011;61690;51.824;6.306;2022-08-19T05:02:13;14.23;;;9.90;;
73454;SDS011;61690;51.824;6.306;2022-08-19T05:04:38;15.90;;;9.63;;
73454;SDS011;61690;51.824;6.306;2022-08-19T05:07:04;13.95;;;8.82;;
73454;SDS011;61690;51.824;6.306;2022-08-19T05:09:30;14.80;;;8.80;;
73454;SDS011;61690;51.824;6.306;2022-08-19T05:11:55;15.10;;;10.77;;
73454;SDS011;61690;51.824;6.306;2022-08-19T05:14:21;13.50;;;10.43;;
73454;SDS011;61690;51.824;6.306;2022-08-19T05:16:46;16.40;;;12.27;;
73454;SDS011;61690;51.824;6.306;2022-08-19T05:19:12;15.07;;;11.30;;
73454;SDS011;61690;51.824;6.306;2022-08-19T05:21:56;14.00;;;11.30;;
73454;SDS011;61690;51.824;6.306;2022-08-19T05:24:40;14.60;;;11.60;;
73454;SDS011;61690;51.824;6.306;2022-08-19T05:27:06;13.43;;;10.88;;
73454;SDS011;61690;51.824;6.306;2022-08-19T05:29:32;14.03;;;10.80;;
73454;SDS011;61690;51.824;6.306;2022-08-19T05:32:02;11.65;;;9.75;;
73454;SDS011;61690;51.824;6.306;2022-08-19T05:34:30;11.93;;;9.20;;
73454;SDS011;61690;51.824;6.306;2022-08-19T05:36:56;11.63;;;9.55;;
73454;SDS011;61690;51.824;6.306;2022-08-19T05:39:25;12.75;;;10.10;;
73454;SDS011;61690;51.824;6.306;2022-08-19T05:41:54;12.80;;;10.50;;
73454;SDS011;61690;51.824;6.306;2022-08-19T05:44:22;16.67;;;12.20;;
73454;SDS011;61690;51.824;6.306;2022-08-19T05:46:51;17.40;;;13.70;;
73454;SDS011;61690;51.824;6.306;2022-08-19T05:49:18;17.58;;;12.73;;
73454;SDS011;61690;51.824;6.306;2022-08-19T05:51:44;19.33;;;14.73;;
73454;SDS011;61690;51.824;6.306;2022-08-19T05:54:10;17.92;;;14.23;;
73454;SDS011;61690;51.824;6.306;2022-08-19T05:56:38;19.97;;;15.17;;
73454;SDS011;61690;51.824;6.306;2022-08-19T05:59:05;18.85;;;14.30;;
73454;SDS011;61690;51.824;6.306;2022-08-19T06:01:35;18.00;;;14.77;;
73454;SDS011;61690;51.824;6.306;2022-08-19T06:04:02;18.55;;;15.27;;
73454;SDS011;61690;51.824;6.306;2022-08-19T06:06:28;18.10;;;14.60;;
73454;SDS011;61690;51.824;6.306;2022-08-19T06:08:53;17.60;;;14.63;;
73454;SDS011;61690;51.824;6.306;2022-08-19T06:11:28;17.47;;;14.47;;
73454;SDS011;61690;51.824;6.306;2022-08-19T06:14:00;17.55;;;14.43;;
73454;SDS011;61690;51.824;6.306;2022-08-19T06:16:32;16.90;;;14.20;;
73454;SDS011;61690;51.824;6.306;2022-08-19T06:19:00;17.47;;;14.27;;
73454;SDS011;61690;51.824;6.306;2022-08-19T06:21:27;16.33;;;13.27;;
73454;SDS011;61690;51.824;6.306;2022-08-19T06:23:54;16.63;;;13.55;;
73454;SDS011;61690;51.824;6.306;2022-08-19T06:26:21;15.60;;;13.07;;
73454;SDS011;61690;51.824;6.306;2022-08-19T06:28:47;16.33;;;13.30;;
73454;SDS011;61690;51.824;6.306;2022-08-19T06:31:17;16.27;;;13.18;;
73454;SDS011;61690;51.824;6.306;2022-08-19T06:33:45;17.73;;;13.02;;
73454;SDS011;61690;51.824;6.306;2022-08-19T06:36:32;17.98;;;13.80;;
73454;SDS011;61690;51.824;6.306;2022-08-19T06:39:03;19.75;;;14.77;;
73454;SDS011;61690;51.824;6.306;2022-08-19T06:41:31;19.43;;;15.40;;
73454;SDS011;61690;51.824;6.306;2022-08-19T06:43:59;22.20;;;16.40;;
73454;SDS011;61690;51.824;6.306;2022-08-19T06:46:24;22.33;;;16.10;;
73454;SDS011;61690;51.824;6.306;2022-08-19T06:48:51;26.23;;;18.48;;
73454;SDS011;61690;51.824;6.306;2022-08-19T06:51:18;28.00;;;19.65;;
73454;SDS011;61690;51.824;6.306;2022-08-19T06:53:48;28.42;;;19.77;;
73454;SDS011;61690;51.824;6.306;2022-08-19T06:56:15;27.30;;;19.43;;
73454;SDS011;61690;51.824;6.306;2022-08-19T06:58:42;28.05;;;19.42;;
73454;SDS011;61690;51.824;6.306;2022-08-19T07:01:08;30.17;;;19.90;;
73454;SDS011;61690;51.824;6.306;2022-08-19T07:03:34;30.10;;;20.63;;
73454;SDS011;61690;51.824;6.306;2022-08-19T07:06:04;29.67;;;20.38;;
73454;SDS011;61690;51.824;6.306;2022-08-19T07:08:33;28.52;;;19.40;;
73454;SDS011;61690;51.824;6.306;2022-08-19T07:10:59;28.23;;;19.80;;
73454;SDS011;61690;51.824;6.306;2022-08-19T07:13:24;29.13;;;20.23;;
73454;SDS011;61690;51.824;6.306;2022-08-19T07:15:49;29.53;;;19.80;;
73454;SDS011;61690;51.824;6.306;2022-08-19T07:18:17;28.75;;;19.70;;
73454;SDS011;61690;51.824;6.306;2022-08-19T07:20:43;31.70;;;20.88;;
73454;SDS011;61690;51.824;6.306;2022-08-19T07:23:09;29.27;;;19.53;;
73454;SDS011;61690;51.824;6.306;2022-08-19T07:25:38;29.92;;;20.58;;
73454;SDS011;61690;51.824;6.306;2022-08-19T07:28:04;31.63;;;21.30;;
73454;SDS011;61690;51.824;6.306;2022-08-19T07:30:29;30.33;;;21.05;;
73454;SDS011;61690;51.824;6.306;2022-08-19T07:32:55;30.10;;;19.35;;
73454;SDS011;61690;51.824;6.306;2022-08-19T07:35:21;30.80;;;19.83;;
73454;SDS011;61690;51.824;6.306;2022-08-19T07:37:46;36.75;;;22.23;;
73454;SDS011;61690;51.824;6.306;2022-08-19T07:40:12;34.57;;;22.13;;
73454;SDS011;61690;51.824;6.306;2022-08-19T07:42:38;34.80;;;21.40;;
73454;SDS011;61690;51.824;6.306;2022-08-19T07:45:04;35.37;;;22.50;;
73454;SDS011;61690;51.824;6.306;2022-08-19T07:47:30;35.85;;;21.75;;
73454;SDS011;61690;51.824;6.306;2022-08-19T07:49:56;35.73;;;22.13;;
73454;SDS011;61690;51.824;6.306;2022-08-19T07:52:21;35.60;;;21.30;;
73454;SDS011;61690;51.824;6.306;2022-08-19T07:54:47;33.05;;;20.42;;
73454;SDS011;61690;51.824;6.306;2022-08-19T07:57:14;35.92;;;21.63;;
73454;SDS011;61690;51.824;6.306;2022-08-19T07:59:40;34.93;;;21.77;;
73454;SDS011;61690;51.824;6.306;2022-08-19T08:02:06;36.25;;;22.38;;
73454;SDS011;61690;51.824;6.306;2022-08-19T08:04:33;36.93;;;22.87;;
73454;SDS011;61690;51.824;6.306;2022-08-19T08:07:17;36.50;;;22.85;;
73454;SDS011;61690;51.824;6.306;2022-08-19T08:10:03;36.85;;;22.55;;
73454;SDS011;61690;51.824;6.306;2022-08-19T08:12:34;38.35;;;22.42;;
73454;SDS011;61690;51.824;6.306;2022-08-19T08:15:05;37.78;;;21.75;;
73454;SDS011;61690;51.824;6.306;2022-08-19T08:17:33;35.20;;;21.40;;
73454;SDS011;61690;51.824;6.306;2022-08-19T08:20:02;34.85;;;20.60;;
73454;SDS011;61690;51.824;6.306;2022-08-19T08:22:32;37.15;;;22.52;;
73454;SDS011;61690;51.824;6.306;2022-08-19T08:25:18;37.65;;;22.52;;
73454;SDS011;61690;51.824;6.306;2022-08-19T08:27:47;37.58;;;22.35;;
73454;SDS011;61690;51.824;6.306;2022-08-19T08:30:24;31.57;;;19.80;;
73454;SDS011;61690;51.824;6.306;2022-08-19T08:32:50;31.50;;;19.27;;
73454;SDS011;61690;51.824;6.306;2022-08-19T08:35:20;30.85;;;18.48;;
73454;SDS011;61690;51.824;6.306;2022-08-19T08:37:51;29.35;;;18.08;;
73454;SDS011;61690;51.824;6.306;2022-08-19T08:40:23;26.70;;;16.65;;
73454;SDS011;61690;51.824;6.306;2022-08-19T08:45:46;22.88;;;14.40;;
73454;SDS011;61690;51.824;6.306;2022-08-19T08:48:19;21.02;;;14.35;;
73454;SDS011;61690;51.824;6.306;2022-08-19T08:50:49;22.27;;;13.98;;
73454;SDS011;61690;51.824;6.306;2022-08-19T08:53:51;20.20;;;13.60;;
73454;SDS011;61690;51.824;6.306;2022-08-19T08:56:12;20.37;;;12.83;;
73454;SDS011;61690;51.824;6.306;2022-08-19T08:58:50;18.95;;;12.25;;
73454;SDS011;61690;51.824;6.306;2022-08-19T09:01:35;18.98;;;12.27;;
73454;SDS011;61690;51.824;6.306;2022-08-19T09:04:04;17.95;;;11.35;;
73454;SDS011;61690;51.824;6.306;2022-08-19T09:07:14;15.20;;;10.50;;
73454;SDS011;61690;51.824;6.306;2022-08-19T09:09:34;16.43;;;10.80;;
73454;SDS011;61690;51.824;6.306;2022-08-19T09:15:09;14.35;;;9.55;;
73454;SDS011;61690;51.824;6.306;2022-08-19T09:17:36;14.00;;;9.40;;
73454;SDS011;61690;51.824;6.306;2022-08-19T09:25:19;13.02;;;8.55;;
73454;SDS011;61690;51.824;6.306;2022-08-19T09:27:47;12.57;;;8.52;;
73454;SDS011;61690;51.824;6.306;2022-08-19T09:30:16;12.35;;;8.55;;
73454;SDS011;61690;51.824;6.306;2022-08-19T09:32:56;11.80;;;8.02;;
73454;SDS011;61690;51.824;6.306;2022-08-19T09:35:22;11.23;;;7.70;;
73454;SDS011;61690;51.824;6.306;2022-08-19T09:37:49;10.85;;;7.88;;
73454;SDS011;61690;51.824;6.306;2022-08-19T09:40:16;11.15;;;7.70;;
73454;SDS011;61690;51.824;6.306;2022-08-19T09:42:42;10.95;;;7.50;;
73454;SDS011;61690;51.824;6.306;2022-08-19T09:45:15;10.63;;;7.60;;
73454;SDS011;61690;51.824;6.306;2022-08-19T09:47:45;11.03;;;7.40;;
73454;SDS011;61690;51.824;6.306;2022-08-19T09:50:11;10.77;;;7.65;;
73454;SDS011;61690;51.824;6.306;2022-08-19T09:52:37;10.03;;;7.13;;
73454;SDS011;61690;51.824;6.306;2022-08-19T09:55:03;10.35;;;7.50;;
73454;SDS011;61690;51.824;6.306;2022-08-19T09:57:36;10.80;;;7.35;;
73454;SDS011;61690;51.824;6.306;2022-08-19T10:00:05;9.48;;;6.90;;
73454;SDS011;61690;51.824;6.306;2022-08-19T10:02:33;9.50;;;6.50;;
73454;SDS011;61690;51.824;6.306;2022-08-19T10:04:59;10.02;;;6.40;;
73454;SDS011;61690;51.824;6.306;2022-08-19T10:07:47;8.88;;;6.43;;
73454;SDS011;61690;51.824;6.306;2022-08-19T10:10:13;9.05;;;6.20;;
73454;SDS011;61690;51.824;6.306;2022-08-19T10:12:41;9.02;;;6.28;;
73454;SDS011;61690;51.824;6.306;2022-08-19T10:15:07;10.23;;;6.87;;
73454;SDS011;61690;51.824;6.306;2022-08-19T10:17:33;9.40;;;6.68;;
73454;SDS011;61690;51.824;6.306;2022-08-19T10:20:02;8.20;;;6.47;;
73454;SDS011;61690;51.824;6.306;2022-08-19T10:22:29;9.63;;;6.82;;
73454;SDS011;61690;51.824;6.306;2022-08-19T10:24:55;8.73;;;6.67;;
73454;SDS011;61690;51.824;6.306;2022-08-19T10:27:21;8.63;;;6.47;;
73454;SDS011;61690;51.824;6.306;2022-08-19T10:29:46;8.55;;;6.35;;
73454;SDS011;61690;51.824;6.306;2022-08-19T10:32:12;8.63;;;6.13;;
73454;SDS011;61690;51.824;6.306;2022-08-19T10:34:38;7.85;;;5.95;;
73454;SDS011;61690;51.824;6.306;2022-08-19T10:37:07;8.10;;;6.10;;
73454;SDS011;61690;51.824;6.306;2022-08-19T10:39:34;9.40;;;6.30;;
73454;SDS011;61690;51.824;6.306;2022-08-19T10:42:04;8.75;;;6.20;;
73454;SDS011;61690;51.824;6.306;2022-08-19T10:44:31;8.10;;;6.03;;
73454;SDS011;61690;51.824;6.306;2022-08-19T10:47:03;7.93;;;5.93;;
73454;SDS011;61690;51.824;6.306;2022-08-19T10:49:29;8.57;;;6.00;;
73454;SDS011;61690;51.824;6.306;2022-08-19T10:51:55;8.27;;;6.23;;
73454;SDS011;61690;51.824;6.306;2022-08-19T10:54:40;7.97;;;5.68;;
73454;SDS011;61690;51.824;6.306;2022-08-19T10:57:24;8.20;;;6.00;;
73454;SDS011;61690;51.824;6.306;2022-08-19T10:59:54;7.60;;;6.10;;
73454;SDS011;61690;51.824;6.306;2022-08-19T11:02:20;7.68;;;5.65;;
73454;SDS011;61690;51.824;6.306;2022-08-19T11:04:46;8.23;;;5.80;;
73454;SDS011;61690;51.824;6.306;2022-08-19T11:07:17;8.02;;;5.68;;
73454;SDS011;61690;51.824;6.306;2022-08-19T11:09:42;7.80;;;6.00;;
73454;SDS011;61690;51.824;6.306;2022-08-19T11:12:08;7.27;;;5.63;;
73454;SDS011;61690;51.824;6.306;2022-08-19T11:14:34;7.55;;;5.72;;
73454;SDS011;61690;51.824;6.306;2022-08-19T11:17:01;7.65;;;5.72;;
73454;SDS011;61690;51.824;6.306;2022-08-19T11:19:28;7.70;;;5.68;;
73454;SDS011;61690;51.824;6.306;2022-08-19T11:24:41;7.40;;;5.53;;
73454;SDS011;61690;51.824;6.306;2022-08-19T11:27:08;8.40;;;5.80;;
73454;SDS011;61690;51.824;6.306;2022-08-19T11:29:35;8.32;;;5.90;;
73454;SDS011;61690;51.824;6.306;2022-08-19T11:32:21;9.52;;;5.97;;
73454;SDS011;61690;51.824;6.306;2022-08-19T11:34:49;7.32;;;5.40;;
73454;SDS011;61690;51.824;6.306;2022-08-19T11:37:14;8.60;;;5.80;;
73454;SDS011;61690;51.824;6.306;2022-08-19T11:39:40;8.33;;;5.70;;
73454;SDS011;61690;51.824;6.306;2022-08-19T11:42:06;7.75;;;5.63;;
73454;SDS011;61690;51.824;6.306;2022-08-19T11:44:51;7.97;;;5.50;;
73454;SDS011;61690;51.824;6.306;2022-08-19T11:47:17;7.23;;;5.23;;
73454;SDS011;61690;51.824;6.306;2022-08-19T11:49:44;9.77;;;5.15;;
73454;SDS011;61690;51.824;6.306;2022-08-19T11:52:10;8.82;;;5.53;;
73454;SDS011;61690;51.824;6.306;2022-08-19T11:54:45;10.20;;;5.50;;
73454;SDS011;61690;51.824;6.306;2022-08-19T11:57:10;7.38;;;5.00;;
73454;SDS011;61690;51.824;6.306;2022-08-19T11:59:36;8.60;;;5.50;;
73454;SDS011;61690;51.824;6.306;2022-08-19T12:02:01;8.23;;;5.30;;
73454;SDS011;61690;51.824;6.306;2022-08-19T12:04:27;9.60;;;5.43;;
73454;SDS011;61690;51.824;6.306;2022-08-19T12:06:52;7.77;;;5.30;;
73454;SDS011;61690;51.824;6.306;2022-08-19T12:09:21;8.07;;;5.63;;
73454;SDS011;61690;51.824;6.306;2022-08-19T12:11:49;8.30;;;5.50;;
73454;SDS011;61690;51.824;6.306;2022-08-19T12:14:15;8.70;;;4.95;;
73454;SDS011;61690;51.824;6.306;2022-08-19T12:16:42;7.60;;;5.53;;
73454;SDS011;61690;51.824;6.306;2022-08-19T12:19:10;8.45;;;5.05;;
73454;SDS011;61690;51.824;6.306;2022-08-19T12:21:47;8.57;;;4.90;;
73454;SDS011;61690;51.824;6.306;2022-08-19T12:24:13;7.95;;;6.00;;
73454;SDS011;61690;51.824;6.306;2022-08-19T12:26:38;7.97;;;5.33;;
73454;SDS011;61690;51.824;6.306;2022-08-19T12:29:04;8.45;;;5.30;;
73454;SDS011;61690;51.824;6.306;2022-08-19T12:31:29;10.00;;;7.10;;
73454;SDS011;61690;51.824;6.306;2022-08-19T12:33:55;13.17;;;8.77;;
73454;SDS011;61690;51.824;6.306;2022-08-19T12:36:27;14.10;;;10.32;;
73454;SDS011;61690;51.824;6.306;2022-08-19T12:38:52;31.67;;;24.13;;
73454;SDS011;61690;51.824;6.306;2022-08-19T12:41:18;24.20;;;18.13;;
73454;SDS011;61690;51.824;6.306;2022-08-19T12:43:44;24.05;;;16.50;;
73454;SDS011;61690;51.824;6.306;2022-08-19T12:46:10;27.70;;;20.65;;
73454;SDS011;61690;51.824;6.306;2022-08-19T12:48:50;21.75;;;17.05;;
73454;SDS011;61690;51.824;6.306;2022-08-19T12:51:19;27.67;;;19.97;;
73454;SDS011;61690;51.824;6.306;2022-08-19T12:53:45;24.20;;;18.23;;
73454;SDS011;61690;51.824;6.306;2022-08-19T12:56:11;22.50;;;17.27;;
73454;SDS011;61690;51.824;6.306;2022-08-19T12:58:39;20.87;;;15.50;;
73454;SDS011;61690;51.824;6.306;2022-08-19T13:01:16;19.63;;;15.30;;
73454;SDS011;61690;51.824;6.306;2022-08-19T13:03:42;22.08;;;15.30;;
73454;SDS011;61690;51.824;6.306;2022-08-19T13:06:11;18.15;;;13.98;;
73454;SDS011;61690;51.824;6.306;2022-08-19T13:08:37;19.70;;;14.55;;
73454;SDS011;61690;51.824;6.306;2022-08-19T13:11:19;17.90;;;13.80;;
73454;SDS011;61690;51.824;6.306;2022-08-19T13:13:51;17.48;;;13.57;;
73454;SDS011;61690;51.824;6.306;2022-08-19T13:16:19;16.75;;;13.18;;
73454;SDS011;61690;51.824;6.306;2022-08-19T13:18:47;18.55;;;13.65;;
73454;SDS011;61690;51.824;6.306;2022-08-19T13:21:13;17.38;;;12.90;;
73454;SDS011;61690;51.824;6.306;2022-08-19T13:23:38;16.43;;;11.30;;
73454;SDS011;61690;51.824;6.306;2022-08-19T13:26:13;15.48;;;11.93;;
73454;SDS011;61690;51.824;6.306;2022-08-19T13:28:41;16.13;;;10.90;;
73454;SDS011;61690;51.824;6.306;2022-08-19T13:31:36;15.50;;;10.87;;
73454;SDS011;61690;51.824;6.306;2022-08-19T13:34:26;15.32;;;11.50;;
73454;SDS011;61690;51.824;6.306;2022-08-19T13:36:56;14.43;;;10.70;;
73454;SDS011;61690;51.824;6.306;2022-08-19T13:39:25;12.68;;;9.63;;
73454;SDS011;61690;51.824;6.306;2022-08-19T13:41:52;13.57;;;9.32;;
73454;SDS011;61690;51.824;6.306;2022-08-19T13:44:18;13.60;;;9.47;;
73454;SDS011;61690;51.824;6.306;2022-08-19T13:46:45;13.40;;;9.45;;
73454;SDS011;61690;51.824;6.306;2022-08-19T13:49:12;13.18;;;8.85;;
73454;SDS011;61690;51.824;6.306;2022-08-19T13:51:39;12.43;;;8.82;;
73454;SDS011;61690;51.824;6.306;2022-08-19T13:54:05;11.63;;;8.17;;
73454;SDS011;61690;51.824;6.306;2022-08-19T13:56:35;12.98;;;8.55;;
73454;SDS011;61690;51.824;6.306;2022-08-19T13:59:04;11.82;;;7.80;;
73454;SDS011;61690;51.824;6.306;2022-08-19T14:01:30;12.17;;;7.67;;
73454;SDS011;61690;51.824;6.306;2022-08-19T14:03:55;10.07;;;7.73;;
73454;SDS011;61690;51.824;6.306;2022-08-19T14:06:26;13.47;;;7.53;;
73454;SDS011;61690;51.824;6.306;2022-08-19T14:08:57;11.57;;;7.53;;
73454;SDS011;61690;51.824;6.306;2022-08-19T14:11:23;12.13;;;7.25;;
73454;SDS011;61690;51.824;6.306;2022-08-19T14:13:49;13.00;;;7.13;;
73454;SDS011;61690;51.824;6.306;2022-08-19T14:16:15;11.50;;;6.97;;
73454;SDS011;61690;51.824;6.306;2022-08-19T14:18:40;9.53;;;6.80;;
73454;SDS011;61690;51.824;6.306;2022-08-19T14:21:07;10.18;;;6.90;;
73454;SDS011;61690;51.824;6.306;2022-08-19T14:23:42;11.63;;;6.80;;
73454;SDS011;61690;51.824;6.306;2022-08-19T14:26:08;10.80;;;6.67;;
73454;SDS011;61690;51.824;6.306;2022-08-19T14:28:36;10.15;;;7.00;;
73454;SDS011;61690;51.824;6.306;2022-08-19T14:31:02;10.70;;;6.55;;
73454;SDS011;61690;51.824;6.306;2022-08-19T14:33:36;15.40;;;6.80;;
73454;SDS011;61690;51.824;6.306;2022-08-19T14:36:02;10.57;;;6.60;;
73454;SDS011;61690;51.824;6.306;2022-08-19T14:38:29;10.05;;;6.13;;
73454;SDS011;61690;51.824;6.306;2022-08-19T14:41:04;9.75;;;6.00;;
73454;SDS011;61690;51.824;6.306;2022-08-19T14:46:18;10.10;;;6.20;;
73454;SDS011;61690;51.824;6.306;2022-08-19T14:48:46;9.20;;;5.97;;
73454;SDS011;61690;51.824;6.306;2022-08-19T14:51:12;10.35;;;6.10;;
73454;SDS011;61690;51.824;6.306;2022-08-19T14:56:28;9.37;;;5.70;;
73454;SDS011;61690;51.824;6.306;2022-08-19T14:58:55;9.05;;;5.55;;
73454;SDS011;61690;51.824;6.306;2022-08-19T15:01:24;10.23;;;5.82;;
73454;SDS011;61690;51.824;6.306;2022-08-19T15:03:55;8.65;;;6.00;;